Time;durP1;ratioP1;P1;durP2;ratioP2;P2;SDS_P1;SDS_P2;PMS_P1;PMS_P2;Temp;Humidity;BMP_temperature;BMP_pressure;BME280_temperature;BME280_humidity;BME280_pressure;Samples;Min_cycle;Max_cycle;Signal;HPM_P1;HPM_P2
2023/01/19 00:01:31;;;;;;;7.90;4.53;;;2.70;99.90;;;;;;5034630;28;20033;-73
2023/01/19 00:03:57;;;;;;;7.63;3.08;;;2.70;99.90;;;;;;5036086;28;20041;-74
2023/01/19 00:06:23;;;;;;;4.20;2.25;;;2.70;99.90;;;;;;5034789;28;20034;-74
2023/01/19 00:08:51;;;;;;;4.78;1.75;;;2.70;99.90;;;;;;5035919;28;20033;-74
2023/01/19 00:11:17;;;;;;;1.73;1.63;;;2.70;99.90;;;;;;5034880;28;20109;-74
2023/01/19 00:13:49;;;;;;;8.52;4.30;;;2.80;99.90;;;;;;5035790;28;20478;-74
2023/01/19 00:16:17;;;;;;;;;;;2.70;99.90;;;;;;5036474;28;20060;-74
2023/01/19 00:18:46;;;;;;;3.10;2.20;;;2.80;99.90;;;;;;5034325;28;19909;-73
2023/01/19 00:21:13;;;;;;;5.20;4.05;;;2.70;99.90;;;;;;5035886;28;20045;-74
2023/01/19 00:23:39;;;;;;;7.65;4.03;;;2.70;99.90;;;;;;5035679;28;20017;-74
2023/01/19 00:26:05;;;;;;;8.88;4.47;;;2.60;99.90;;;;;;5035649;28;20075;-74
2023/01/19 00:28:31;;;;;;;2.72;1.85;;;2.60;99.90;;;;;;5035400;28;20026;-74
2023/01/19 00:30:57;;;;;;;4.18;1.42;;;2.60;99.90;;;;;;5035630;28;20448;-74
2023/01/19 00:33:23;;;;;;;1.08;0.93;;;2.70;99.90;;;;;;5035461;28;20113;-73
2023/01/19 00:35:55;;;;;;;6.18;3.20;;;2.70;99.90;;;;;;5035673;28;20034;-74
2023/01/19 00:38:21;;;;;;;8.25;3.75;;;2.60;99.90;;;;;;5032045;28;20030;-74
2023/01/19 00:40:48;;;;;;;2.72;1.88;;;2.60;99.90;;;;;;5033899;28;20056;-73
2023/01/19 00:43:13;;;;;;;4.60;2.75;;;2.50;99.90;;;;;;5033933;28;20148;-74
2023/01/19 00:45:39;;;;;;;4.50;2.28;;;2.50;99.90;;;;;;5035186;28;20124;-74
2023/01/19 00:48:05;;;;;;;6.82;3.17;;;2.60;99.90;;;;;;5034270;28;20083;-73
2023/01/19 00:50:32;;;;;;;2.28;2.00;;;2.60;99.90;;;;;;5035046;28;20397;-74
2023/01/19 00:52:59;;;;;;;1.52;1.42;;;2.50;99.90;;;;;;5035157;28;20036;-74
2023/01/19 00:55:29;;;;;;;11.07;5.82;;;2.50;99.90;;;;;;5035057;28;20029;-74
2023/01/19 00:57:55;;;;;;;4.40;3.33;;;2.50;99.90;;;;;;5035032;28;20018;-74
2023/01/19 01:00:22;;;;;;;7.97;2.65;;;2.40;99.90;;;;;;5034031;28;20049;-73
2023/01/19 01:02:50;;;;;;;4.28;1.70;;;2.40;99.90;;;;;;5035104;28;20075;-74
2023/01/19 01:05:16;;;;;;;7.90;3.83;;;2.40;99.90;;;;;;5034996;28;20162;-73
2023/01/19 01:07:48;;;;;;;1.98;1.45;;;2.40;99.90;;;;;;5033537;28;20033;-73
2023/01/19 01:10:22;;;;;;;6.28;4.18;;;2.30;99.90;;;;;;5034753;28;20067;-74
2023/01/19 01:12:48;;;;;;;6.18;3.10;;;2.40;99.90;;;;;;5033467;28;20393;-74
2023/01/19 01:15:15;;;;;;;9.68;4.53;;;2.40;99.90;;;;;;5033519;28;20378;-74
2023/01/19 01:17:46;;;;;;;5.90;3.00;;;2.50;99.90;;;;;;5033560;28;20036;-74
2023/01/19 01:20:15;;;;;;;2.83;1.67;;;2.40;99.90;;;;;;5034474;28;20116;-74
2023/01/19 01:22:44;;;;;;;6.43;3.38;;;2.30;99.90;;;;;;5034672;28;20029;-74
2023/01/19 01:25:11;;;;;;;7.32;1.95;;;2.30;99.90;;;;;;5034715;28;20441;-74
2023/01/19 01:27:37;;;;;;;2.15;1.55;;;2.30;99.90;;;;;;5034642;28;20505;-74
2023/01/19 01:30:04;;;;;;;7.93;3.53;;;2.40;99.90;;;;;;5035053;28;20073;-73
2023/01/19 01:32:30;;;;;;;3.13;2.65;;;2.40;99.90;;;;;;5034543;28;20030;-74
2023/01/19 01:34:55;;;;;;;8.13;3.55;;;2.30;99.90;;;;;;5026285;28;20026;-73
2023/01/19 01:37:21;;;;;;;3.50;2.30;;;2.30;99.90;;;;;;5033250;28;20049;-74
2023/01/19 01:39:47;;;;;;;2.42;2.15;;;2.20;99.90;;;;;;5032902;28;20029;-74
2023/01/19 01:42:18;;;;;;;13.00;2.78;;;2.20;99.90;;;;;;5033939;28;20033;-74
2023/01/19 01:44:50;;;;;;;10.13;4.22;;;2.20;99.90;;;;;;5033295;28;20429;-74
2023/01/19 01:47:29;;;;;;;14.48;5.10;;;2.30;99.90;;;;;;5034211;28;20033;-74
2023/01/19 01:50:23;;;;;;;4.70;2.63;;;2.30;99.90;;;;;;5034439;28;20620;-74
2023/01/19 01:52:53;;;;;;;2.42;2.15;;;2.30;99.90;;;;;;5034728;28;20104;-74
2023/01/19 01:55:22;;;;;;;3.38;1.70;;;2.30;99.90;;;;;;5034026;28;20025;-74
2023/01/19 01:57:51;;;;;;;4.15;3.00;;;2.30;99.90;;;;;;5024705;28;20033;-74
2023/01/19 02:00:17;;;;;;;14.43;5.28;;;2.40;99.90;;;;;;5033731;28;20793;-74
2023/01/19 02:02:50;;;;;;;3.00;2.00;;;2.40;99.90;;;;;;5031491;28;20056;-75
2023/01/19 02:05:27;;;;;;;;;;;2.40;99.90;;;;;;5022806;28;20485;-74
2023/01/19 02:13:44;;;;;;;8.20;3.42;;;2.50;99.90;;;;;;5033153;28;20041;-73
2023/01/19 02:16:11;;;;;;;1.08;0.65;;;2.50;99.90;;;;;;5033858;28;20036;-73
2023/01/19 02:18:38;;;;;;;0.30;0.30;;;2.60;99.90;;;;;;5032373;28;20401;-73
2023/01/19 02:21:26;;;;;;;1.85;0.95;;;2.60;99.90;;;;;;5033600;28;20033;-73
2023/01/19 02:23:54;;;;;;;0.10;0.10;;;2.70;99.90;;;;;;5033239;28;20026;-73
2023/01/19 02:26:50;;;;;;;1.13;0.98;;;2.90;99.90;;;;;;5032100;28;20063;-73
2023/01/19 02:29:18;;;;;;;5.28;2.33;;;3.00;99.90;;;;;;5024658;28;20037;-73
2023/01/19 02:31:44;;;;;;;3.63;2.70;;;2.60;99.90;;;;;;5033199;28;20052;-73
2023/01/19 02:34:14;;;;;;;1.45;0.93;;;2.40;99.90;;;;;;5033265;28;20033;-74
2023/01/19 02:36:53;;;;;;;1.77;1.05;;;2.20;99.90;;;;;;5033350;28;20025;-73
2023/01/19 02:39:26;;;;;;;2.92;1.85;;;2.30;99.90;;;;;;5032988;28;20553;-73
2023/01/19 02:41:58;;;;;;;9.70;2.88;;;2.20;99.90;;;;;;5033250;28;20053;-73
2023/01/19 02:44:26;;;;;;;1.35;0.90;;;2.20;99.90;;;;;;5032931;28;20033;-74
2023/01/19 02:46:55;;;;;;;12.20;3.38;;;2.00;99.90;;;;;;5031874;28;20033;-73
2023/01/19 02:49:22;;;;;;;8.25;4.43;;;2.00;99.90;;;;;;5033151;28;20071;-73
2023/01/19 02:51:48;;;;;;;4.60;2.65;;;2.00;99.90;;;;;;5031823;28;20433;-73
2023/01/19 02:54:32;;;;;;;24.95;5.00;;;2.00;99.90;;;;;;5032934;28;20025;-73
2023/01/19 02:57:44;;;;;;;2.95;2.25;;;2.00;99.90;;;;;;5031909;28;20478;-73
2023/01/19 03:00:15;;;;;;;7.90;4.75;;;2.10;99.90;;;;;;4991568;28;20050;-73
2023/01/19 03:02:57;;;;;;;1.30;1.20;;;2.10;99.90;;;;;;5020218;28;20069;-72
2023/01/19 03:05:42;;;;;;;4.38;2.13;;;2.10;99.90;;;;;;5033097;28;20577;-72
2023/01/19 03:08:31;;;;;;;1.20;1.15;;;2.20;99.90;;;;;;5031815;28;20159;-73
2023/01/19 03:11:06;;;;;;;5.97;2.33;;;2.20;99.90;;;;;;5033315;28;20087;-72
2023/01/19 03:13:32;;;;;;;1.00;1.00;;;2.20;99.90;;;;;;5032995;28;20017;-73
2023/01/19 03:16:04;;;;;;;21.17;4.30;;;2.20;99.90;;;;;;5031983;28;20378;-73
2023/01/19 03:18:31;;;;;;;;;;;2.20;99.90;;;;;;5031692;28;20034;-73
2023/01/19 03:21:00;;;;;;;3.85;1.10;;;2.20;99.90;;;;;;5031502;28;20015;-73
2023/01/19 03:23:31;;;;;;;7.97;4.32;;;2.20;99.90;;;;;;5032349;28;20033;-73
2023/01/19 03:25:59;;;;;;;9.45;3.90;;;2.10;99.90;;;;;;5031541;28;20191;-74
2023/01/19 03:28:28;;;;;;;1.02;0.98;;;2.10;99.90;;;;;;5032436;28;20048;-73
2023/01/19 03:31:10;;;;;;;1.27;0.85;;;2.10;99.90;;;;;;5032707;28;20057;-73
2023/01/19 03:33:39;;;;;;;7.35;3.03;;;2.20;99.90;;;;;;5031181;28;20034;-73
2023/01/19 03:36:13;;;;;;;6.95;4.22;;;2.10;99.90;;;;;;5033012;28;20493;-73
2023/01/19 03:38:41;;;;;;;1.15;1.05;;;2.10;99.90;;;;;;5032035;28;20041;-74
2023/01/19 03:41:15;;;;;;;8.77;3.78;;;2.20;99.90;;;;;;5032417;28;20040;-73
2023/01/19 03:43:42;;;;;;;3.13;2.30;;;2.20;99.90;;;;;;5031232;28;20052;-73
2023/01/19 03:46:15;;;;;;;1.63;1.52;;;2.20;99.90;;;;;;5032338;28;20458;-73
2023/01/19 03:48:42;;;;;;;15.95;5.28;;;2.20;99.90;;;;;;5032156;28;20548;-74
2023/01/19 03:51:09;;;;;;;8.68;3.42;;;2.20;99.90;;;;;;5032409;28;20018;-74
2023/01/19 03:53:35;;;;;;;7.60;3.97;;;2.30;99.90;;;;;;5032146;28;20061;-74
2023/01/19 03:56:02;;;;;;;3.97;2.63;;;2.30;99.90;;;;;;5032174;28;20080;-73
2023/01/19 03:58:28;;;;;;;0.93;0.90;;;2.20;99.90;;;;;;5032426;28;20025;-73
2023/01/19 04:00:54;;;;;;;4.22;1.50;;;2.30;99.90;;;;;;5032346;28;20546;-73
2023/01/19 04:03:19;;;;;;;8.95;5.78;;;2.40;99.90;;;;;;5031044;28;20021;-73
2023/01/19 04:05:45;;;;;;;9.65;5.13;;;2.30;99.90;;;;;;5030982;28;20119;-73
2023/01/19 04:08:11;;;;;;;6.60;0.95;;;2.30;99.90;;;;;;5032188;28;20028;-73
2023/01/19 04:10:37;;;;;;;6.55;3.90;;;2.50;99.90;;;;;;5032157;28;20040;-73
2023/01/19 04:13:04;;;;;;;7.28;2.22;;;2.40;99.90;;;;;;5032388;28;20058;-73
2023/01/19 04:15:30;;;;;;;4.15;2.33;;;2.50;99.90;;;;;;5032102;28;20084;-73
2023/01/19 04:17:57;;;;;;;0.88;0.88;;;2.50;99.90;;;;;;5030925;28;20033;-73
2023/01/19 04:20:25;;;;;;;4.45;2.40;;;2.50;99.90;;;;;;5033041;28;20034;-73
2023/01/19 04:22:51;;;;;;;12.10;3.15;;;2.60;99.90;;;;;;5030996;28;20087;-73
2023/01/19 04:25:17;;;;;;;7.88;3.28;;;2.50;99.90;;;;;;5018426;28;20030;-73
2023/01/19 04:27:43;;;;;;;1.90;1.52;;;2.50;99.90;;;;;;5033682;28;20488;-73
2023/01/19 04:30:09;;;;;;;11.07;4.85;;;2.50;99.90;;;;;;5035683;28;20034;-73
2023/01/19 04:32:35;;;;;;;3.83;3.30;;;2.50;99.90;;;;;;5034407;28;20053;-73
2023/01/19 04:35:01;;;;;;;13.07;4.28;;;2.50;99.90;;;;;;5034038;28;20061;-73
2023/01/19 04:37:27;;;;;;;1.30;1.20;;;2.60;99.90;;;;;;5035629;28;20087;-73
2023/01/19 04:39:53;;;;;;;4.65;1.48;;;2.70;99.90;;;;;;5035361;28;20033;-73
2023/01/19 04:42:18;;;;;;;6.68;4.28;;;2.80;99.90;;;;;;5035445;28;20083;-73
2023/01/19 04:44:45;;;;;;;6.68;3.45;;;2.70;99.90;;;;;;5035485;28;20032;-72
2023/01/19 04:47:11;;;;;;;4.53;3.17;;;2.60;99.90;;;;;;5035355;28;20025;-73
2023/01/19 04:49:36;;;;;;;9.10;2.40;;;2.60;99.90;;;;;;5033775;28;20033;-73
2023/01/19 04:52:03;;;;;;;1.52;1.23;;;2.50;99.90;;;;;;5035168;28;20180;-73
2023/01/19 04:54:29;;;;;;;5.88;3.35;;;2.50;99.90;;;;;;5035103;28;20033;-73
2023/01/19 04:56:55;;;;;;;6.05;2.45;;;2.50;99.90;;;;;;5033869;28;20466;-73
2023/01/19 04:59:21;;;;;;;18.50;5.90;;;2.50;99.90;;;;;;5033651;28;20390;-72
2023/01/19 05:01:47;;;;;;;6.18;2.67;;;2.50;99.90;;;;;;5034750;28;20045;-73
2023/01/19 05:04:12;;;;;;;6.88;2.85;;;2.50;99.90;;;;;;5034830;28;20032;-73
2023/01/19 05:06:38;;;;;;;12.23;3.80;;;2.60;99.90;;;;;;5034686;28;20033;-73
2023/01/19 05:09:06;;;;;;;1.30;1.20;;;2.60;99.90;;;;;;5034911;28;20466;-73
2023/01/19 05:11:32;;;;;;;7.15;1.85;;;2.50;99.90;;;;;;5029646;28;20033;-73
2023/01/19 05:13:58;;;;;;;0.10;0.10;;;2.50;99.90;;;;;;5034545;28;20132;-73
2023/01/19 05:16:23;;;;;;;4.18;1.70;;;2.60;99.90;;;;;;5034531;28;20458;-73
2023/01/19 05:18:49;;;;;;;4.28;3.08;;;2.50;99.90;;;;;;5034375;28;20048;-73
2023/01/19 05:21:15;;;;;;;14.15;2.88;;;2.40;99.90;;;;;;5034531;28;20479;-73
2023/01/19 05:23:41;;;;;;;7.07;3.13;;;2.40;99.90;;;;;;5033269;28;20061;-73
2023/01/19 05:26:07;;;;;;;7.85;5.07;;;2.40;99.90;;;;;;5034676;28;20040;-72
2023/01/19 05:28:33;;;;;;;2.08;0.60;;;2.30;99.90;;;;;;5033367;28;20018;-73
2023/01/19 05:30:59;;;;;;;2.28;1.05;;;2.30;99.90;;;;;;5034148;28;20037;-73
2023/01/19 05:33:26;;;;;;;0.60;0.60;;;2.30;99.90;;;;;;5034203;28;20112;-72
2023/01/19 05:35:53;;;;;;;12.40;4.05;;;2.40;99.90;;;;;;5034292;28;20066;-73
2023/01/19 05:38:20;;;;;;;5.68;2.17;;;2.20;99.90;;;;;;5033278;28;20028;-73
2023/01/19 05:40:46;;;;;;;6.65;2.85;;;2.20;99.90;;;;;;5034043;28;20482;-73
2023/01/19 05:43:13;;;;;;;3.50;2.65;;;2.20;99.90;;;;;;5034295;28;20371;-73
2023/01/19 05:45:40;;;;;;;12.25;4.57;;;2.20;99.90;;;;;;5034080;28;20856;-73
2023/01/19 05:48:08;;;;;;;1.65;0.85;;;2.20;99.90;;;;;;5033896;28;20386;-72
2023/01/19 05:50:34;;;;;;;1.35;1.25;;;2.20;99.90;;;;;;5032848;28;20033;-72
2023/01/19 05:53:00;;;;;;;0.57;0.57;;;2.20;99.90;;;;;;5033935;28;20390;-73
2023/01/19 05:55:27;;;;;;;0.20;0.20;;;2.10;99.90;;;;;;5034080;28;20030;-73
2023/01/19 05:57:53;;;;;;;1.48;1.38;;;2.10;99.90;;;;;;5033651;28;20373;-73
2023/01/19 06:00:19;;;;;;;6.80;3.42;;;2.20;99.90;;;;;;5034078;28;20034;-73
2023/01/19 06:02:48;;;;;;;1.33;1.23;;;2.10;99.90;;;;;;5032335;28;20029;-73
2023/01/19 06:05:15;;;;;;;0.25;0.25;;;2.10;99.90;;;;;;5032818;28;20022;-73
2023/01/19 06:07:41;;;;;;;3.28;2.13;;;2.00;99.90;;;;;;5029078;28;20042;-72
2023/01/19 06:10:08;;;;;;;2.28;2.08;;;2.00;99.90;;;;;;5029498;28;20063;-72
2023/01/19 06:12:34;;;;;;;3.58;2.88;;;2.00;99.90;;;;;;5032325;28;20053;-73
2023/01/19 06:15:00;;;;;;;6.20;3.10;;;2.10;99.90;;;;;;5033554;28;20075;-72
2023/01/19 06:17:25;;;;;;;2.13;1.90;;;2.00;99.90;;;;;;5033174;28;20034;-72
2023/01/19 06:19:51;;;;;;;4.43;3.15;;;1.90;99.90;;;;;;5033476;28;20086;-73
2023/01/19 06:22:17;;;;;;;5.85;2.47;;;2.00;99.90;;;;;;5033214;28;20071;-72
2023/01/19 06:24:42;;;;;;;22.48;5.03;;;1.80;99.90;;;;;;5033647;28;20029;-73
2023/01/19 06:27:10;;;;;;;7.47;3.60;;;1.70;99.90;;;;;;5031888;28;20122;-73
2023/01/19 06:29:35;;;;;;;3.50;2.42;;;1.70;99.90;;;;;;5032265;28;20052;-73
2023/01/19 06:32:01;;;;;;;1.58;1.48;;;1.70;99.90;;;;;;5032992;28;20458;-72
2023/01/19 06:34:27;;;;;;;4.65;3.25;;;1.70;99.90;;;;;;5032147;28;20112;-72
2023/01/19 06:36:57;;;;;;;7.63;2.92;;;1.70;99.90;;;;;;5033280;28;20037;-73
2023/01/19 06:39:23;;;;;;;1.08;0.95;;;1.70;99.90;;;;;;5033135;28;20429;-72
2023/01/19 06:41:49;;;;;;;7.07;4.68;;;1.70;99.90;;;;;;5033135;28;20033;-73
2023/01/19 06:44:15;;;;;;;7.15;2.50;;;1.50;99.90;;;;;;5032610;28;20083;-72
2023/01/19 06:46:40;;;;;;;16.48;5.53;;;1.50;99.90;;;;;;5033079;28;20033;-72
2023/01/19 06:49:06;;;;;;;9.05;3.00;;;1.40;99.90;;;;;;5032734;28;20104;-73
2023/01/19 06:51:32;;;;;;;25.08;8.10;;;1.50;99.90;;;;;;5032932;28;20052;-73
2023/01/19 06:53:58;;;;;;;10.90;4.18;;;1.40;99.90;;;;;;5032861;28;20493;-72
2023/01/19 06:56:24;;;;;;;3.83;2.55;;;1.50;99.90;;;;;;5032523;28;20033;-73
2023/01/19 06:58:51;;;;;;;7.75;4.88;;;1.50;99.90;;;;;;5032918;28;20018;-72
2023/01/19 07:01:17;;;;;;;0.50;0.50;;;1.50;99.90;;;;;;5031234;28;20528;-73
2023/01/19 07:03:44;;;;;;;1.55;1.45;;;1.50;99.90;;;;;;5032826;28;20109;-73
2023/01/19 07:06:09;;;;;;;11.60;3.60;;;1.50;99.90;;;;;;5031469;28;20029;-73
2023/01/19 07:08:36;;;;;;;1.20;1.15;;;1.50;99.90;;;;;;5032670;28;20024;-75
2023/01/19 07:11:07;;;;;;;0.70;0.63;;;1.50;99.90;;;;;;5032556;28;20492;-74
2023/01/19 07:13:34;;;;;;;18.23;4.07;;;1.50;99.90;;;;;;5030977;28;20036;-74
2023/01/19 07:16:07;;;;;;;13.23;5.32;;;1.60;99.90;;;;;;5014795;28;20033;-74
2023/01/19 07:18:34;;;;;;;1.23;1.13;;;1.50;99.90;;;;;;5032329;28;20026;-76
2023/01/19 07:20:59;;;;;;;8.85;4.45;;;1.60;99.90;;;;;;5032455;28;20033;-74
2023/01/19 07:23:29;;;;;;;9.38;5.13;;;1.60;99.90;;;;;;4999177;28;20022;-75
2023/01/19 07:26:00;;;;;;;9.05;5.15;;;1.70;99.90;;;;;;5011353;28;20029;-74
2023/01/19 07:28:27;;;;;;;9.18;6.10;;;1.70;99.90;;;;;;5005242;28;20017;-74
2023/01/19 07:30:54;;;;;;;5.63;2.88;;;1.70;99.90;;;;;;5006458;28;20018;-80
2023/01/19 07:33:24;;;;;;;5.20;3.03;;;1.70;99.90;;;;;;5011610;28;20026;-74
2023/01/19 07:35:51;;;;;;;10.48;5.30;;;1.70;99.90;;;;;;5011412;28;20070;-73
2023/01/19 07:38:17;;;;;;;25.27;7.43;;;1.70;99.90;;;;;;5009857;28;20049;-73
2023/01/19 07:40:45;;;;;;;11.32;2.92;;;1.60;99.90;;;;;;5011523;28;20091;-73
2023/01/19 07:43:12;;;;;;;1.17;1.10;;;1.70;99.90;;;;;;5010472;28;20030;-73
2023/01/19 07:45:37;;;;;;;0.40;0.40;;;1.60;99.90;;;;;;5010417;28;20030;-74
2023/01/19 07:48:03;;;;;;;11.68;4.43;;;1.60;99.90;;;;;;5010197;28;20491;-74
2023/01/19 07:50:29;;;;;;;1.50;1.30;;;1.60;99.90;;;;;;5011501;28;20504;-73
2023/01/19 07:52:55;;;;;;;2.42;2.20;;;1.70;99.90;;;;;;5011274;28;20026;-73
2023/01/19 07:55:22;;;;;;;8.32;3.65;;;1.60;99.90;;;;;;4996426;28;20045;-73
2023/01/19 07:57:52;;;;;;;2.50;2.28;;;1.60;99.90;;;;;;5003693;28;20081;-74
2023/01/19 08:00:23;;;;;;;22.27;5.45;;;1.70;99.90;;;;;;5005494;28;20046;-73
2023/01/19 08:02:50;;;;;;;2.58;1.25;;;1.70;99.90;;;;;;5008385;28;20092;-73
2023/01/19 08:05:20;;;;;;;8.98;2.55;;;1.70;99.90;;;;;;5019108;28;20025;-73
2023/01/19 08:07:46;;;;;;;14.13;6.05;;;1.70;99.90;;;;;;5021883;28;20034;-73
2023/01/19 08:10:13;;;;;;;13.38;6.20;;;1.70;99.90;;;;;;5020801;28;20115;-73
2023/01/19 08:12:40;;;;;;;19.27;3.53;;;1.70;99.90;;;;;;5025853;28;20394;-73
2023/01/19 08:15:08;;;;;;;4.05;2.92;;;1.70;99.90;;;;;;5026763;28;20426;-73
2023/01/19 08:17:34;;;;;;;10.57;3.88;;;1.90;99.90;;;;;;5016903;28;20048;-73
2023/01/19 08:20:00;;;;;;;9.65;5.45;;;1.90;99.90;;;;;;5021010;28;20026;-73
2023/01/19 08:22:25;;;;;;;1.50;0.77;;;1.90;99.90;;;;;;5024110;28;20528;-73
2023/01/19 08:24:51;;;;;;;4.63;1.52;;;2.00;99.90;;;;;;5017153;28;20108;-73
2023/01/19 08:27:17;;;;;;;6.57;3.95;;;2.00;99.90;;;;;;5027948;28;20095;-73
2023/01/19 08:29:43;;;;;;;1.42;0.82;;;2.10;99.90;;;;;;5034793;28;20032;-73
2023/01/19 08:32:09;;;;;;;3.97;3.13;;;2.00;99.90;;;;;;5023181;28;20364;-71
2023/01/19 08:34:34;;;;;;;9.65;4.38;;;2.00;99.90;;;;;;5024378;28;20039;-73
2023/01/19 08:37:00;;;;;;;0.90;0.73;;;2.00;99.90;;;;;;5024919;28;20053;-73
2023/01/19 08:39:26;;;;;;;1.17;0.93;;;2.20;99.90;;;;;;5023557;28;20033;-73
2023/01/19 08:41:52;;;;;;;13.60;6.00;;;2.20;99.90;;;;;;5014917;28;20029;-73
2023/01/19 08:44:19;;;;;;;5.45;2.45;;;2.10;99.90;;;;;;5021011;28;20088;-73
2023/01/19 08:46:45;;;;;;;4.25;2.58;;;2.10;99.90;;;;;;5023881;28;20033;-73
2023/01/19 08:49:11;;;;;;;20.67;7.88;;;2.20;99.90;;;;;;5026405;28;20018;-73
2023/01/19 08:51:37;;;;;;;2.85;1.27;;;2.10;99.90;;;;;;5033411;28;20080;-73
2023/01/19 08:54:03;;;;;;;1.48;1.25;;;2.10;99.90;;;;;;5018352;28;20034;-73
2023/01/19 08:56:28;;;;;;;17.15;3.65;;;2.20;99.90;;;;;;5017509;28;20053;-73
2023/01/19 08:58:54;;;;;;;1.40;1.35;;;2.40;99.90;;;;;;5014625;28;20053;-73
2023/01/19 09:01:21;;;;;;;0.80;0.75;;;2.40;99.90;;;;;;5012369;28;20084;-73
2023/01/19 09:03:47;;;;;;;18.20;3.15;;;2.40;99.90;;;;;;5012504;28;20482;-73
2023/01/19 09:06:18;;;;;;;16.17;4.13;;;2.40;99.90;;;;;;5025519;28;20037;-73
2023/01/19 09:08:45;;;;;;;14.23;4.97;;;2.30;99.90;;;;;;5019628;28;20051;-73
2023/01/19 09:11:13;;;;;;;7.20;2.08;;;2.40;99.90;;;;;;5019983;28;20033;-74
2023/01/19 09:13:40;;;;;;;2.60;1.85;;;2.40;99.90;;;;;;5024774;28;20124;-73
2023/01/19 09:16:06;;;;;;;16.35;4.55;;;2.50;99.90;;;;;;5030503;28;20116;-73
2023/01/19 09:18:33;;;;;;;5.65;1.77;;;2.50;99.90;;;;;;5026219;28;20112;-74
2023/01/19 09:21:00;;;;;;;0.60;0.40;;;2.60;99.90;;;;;;5007331;28;20045;-73
2023/01/19 09:23:26;;;;;;;2.47;1.90;;;2.70;99.90;;;;;;5007588;28;20029;-73
2023/01/19 09:26:00;;;;;;;9.35;4.60;;;2.70;99.90;;;;;;5007221;28;20037;-74
2023/01/19 09:28:28;;;;;;;1.65;0.65;;;2.80;99.90;;;;;;5007148;28;20021;-73
2023/01/19 09:30:54;;;;;;;5.47;3.80;;;2.90;99.90;;;;;;5009317;28;20379;-72
2023/01/19 09:33:20;;;;;;;2.03;0.88;;;2.80;99.90;;;;;;5004693;28;20084;-72
2023/01/19 09:35:47;;;;;;;7.57;3.45;;;2.90;99.90;;;;;;5012335;28;20125;-73
2023/01/19 09:38:14;;;;;;;6.90;1.55;;;3.00;99.90;;;;;;5010349;28;20129;-72
2023/01/19 09:40:49;;;;;;;6.60;2.53;;;3.00;99.90;;;;;;5011903;28;20033;-74
2023/01/19 09:43:33;;;;;;;4.75;3.28;;;2.90;99.90;;;;;;5013065;28;20080;-74
2023/01/19 09:46:01;;;;;;;4.85;2.55;;;3.10;99.90;;;;;;5013432;28;20022;-73
2023/01/19 09:48:33;;;;;;;0.82;0.82;;;3.20;99.90;;;;;;5012424;28;20048;-73
2023/01/19 09:51:03;;;;;;;3.75;3.05;;;3.10;99.90;;;;;;5013571;28;20026;-74
2023/01/19 09:53:39;;;;;;;2.55;1.83;;;3.10;99.90;;;;;;5013328;28;20478;-74
2023/01/19 09:56:10;;;;;;;3.42;1.67;;;3.20;99.90;;;;;;5012999;28;20034;-74
2023/01/19 09:58:36;;;;;;;3.50;2.60;;;3.00;99.90;;;;;;5013445;28;20049;-73
2023/01/19 10:01:13;;;;;;;2.20;2.00;;;3.10;99.90;;;;;;5001786;28;20030;-73
2023/01/19 10:03:40;;;;;;;0.90;0.88;;;3.20;99.90;;;;;;5013259;28;20095;-74
2023/01/19 10:06:09;;;;;;;6.43;3.65;;;3.20;99.90;;;;;;5023664;28;20047;-74
2023/01/19 10:08:41;;;;;;;2.65;2.13;;;3.20;99.90;;;;;;5018016;28;20013;-74
2023/01/19 10:11:47;;;;;;;7.63;2.08;;;3.30;99.90;;;;;;5002261;28;20021;-74
2023/01/19 10:14:39;;;;;;;3.65;2.15;;;3.30;99.90;;;;;;5007522;28;20034;-74
2023/01/19 10:17:31;;;;;;;6.00;2.83;;;3.40;99.90;;;;;;5025758;28;20632;-73
2023/01/19 10:19:57;;;;;;;;;;;3.30;99.90;;;;;;5022706;28;20105;-73
2023/01/19 10:22:25;;;;;;;5.38;1.75;;;3.30;99.90;;;;;;5019945;28;20362;-74
2023/01/19 10:24:57;;;;;;;0.63;0.63;;;3.30;99.90;;;;;;4994379;28;20046;-74
2023/01/19 10:27:27;;;;;;;6.90;3.85;;;3.20;99.90;;;;;;5016399;28;20584;-74
2023/01/19 10:29:53;;;;;;;1.85;0.90;;;3.30;99.90;;;;;;5013916;28;20572;-74
2023/01/19 10:32:23;;;;;;;2.38;1.80;;;3.40;99.90;;;;;;5019139;28;20378;-74
2023/01/19 10:34:49;;;;;;;1.70;1.00;;;3.40;99.90;;;;;;5022062;28;20026;-73
2023/01/19 10:37:21;;;;;;;6.45;4.13;;;3.50;99.90;;;;;;5023870;28;20022;-73
2023/01/19 10:40:10;;;;;;;5.78;3.28;;;3.40;99.90;;;;;;5030954;28;20044;-74
2023/01/19 10:42:40;;;;;;;14.85;3.15;;;3.50;99.90;;;;;;5010442;28;20157;-74
2023/01/19 10:45:18;;;;;;;4.17;1.93;;;3.50;99.90;;;;;;5009266;28;20121;-74
2023/01/19 10:47:46;;;;;;;8.15;3.25;;;3.50;99.90;;;;;;5022217;28;20026;-72
2023/01/19 10:50:30;;;;;;;9.55;4.32;;;3.50;99.90;;;;;;5030084;28;20490;-74
2023/01/19 10:53:02;;;;;;;3.75;2.35;;;3.70;99.90;;;;;;5026975;28;20025;-74
2023/01/19 10:55:32;;;;;;;;;;;4.10;99.90;;;;;;5015501;28;20018;-74
2023/01/19 10:57:59;;;;;;;5.57;3.25;;;4.70;99.90;;;;;;5018983;28;19918;-75
2023/01/19 11:00:30;;;;;;;1.90;1.48;;;5.20;99.90;;;;;;5021615;28;20398;-75
2023/01/19 11:02:55;;;;;;;8.48;2.58;;;5.40;99.90;;;;;;5027621;28;20043;-77
2023/01/19 11:05:26;;;;;;;6.32;1.60;;;5.70;99.90;;;;;;5030320;28;20018;-75
2023/01/19 11:07:52;;;;;;;8.93;1.65;;;5.30;99.90;;;;;;5021234;28;20030;-74
2023/01/19 11:10:23;;;;;;;2.95;1.80;;;5.70;99.90;;;;;;5014828;28;20056;-75
2023/01/19 11:13:03;;;;;;;9.35;3.10;;;6.10;99.90;;;;;;5000163;28;20474;-75
2023/01/19 11:15:32;;;;;;;7.85;2.78;;;5.90;99.90;;;;;;5011869;28;20050;-75
2023/01/19 11:17:58;;;;;;;2.47;1.50;;;5.70;99.90;;;;;;5010587;28;20038;-74
2023/01/19 11:20:28;;;;;;;6.93;1.58;;;5.80;99.90;;;;;;5012021;28;20042;-75
2023/01/19 11:23:24;;;;;;;3.75;2.65;;;6.20;99.90;;;;;;5011858;28;20475;-75
2023/01/19 11:25:51;;;;;;;1.85;1.75;;;5.90;99.90;;;;;;5011866;28;20494;-75
2023/01/19 11:28:44;;;;;;;3.28;2.30;;;6.40;99.90;;;;;;5010507;28;20026;-75
2023/01/19 11:31:10;;;;;;;6.65;3.00;;;6.70;99.90;;;;;;5021411;28;20085;-75
2023/01/19 11:33:42;;;;;;;7.20;2.85;;;6.70;99.90;;;;;;5011908;28;20045;-75
2023/01/19 11:36:15;;;;;;;;;;;6.30;99.90;;;;;;5010333;28;20482;-75
2023/01/19 11:38:44;;;;;;;10.90;2.45;;;6.60;99.90;;;;;;5014618;28;19920;-75
2023/01/19 11:41:24;;;;;;;3.58;2.03;;;6.40;99.90;;;;;;5015039;28;20482;-75
2023/01/19 11:43:58;;;;;;;15.40;2.95;;;6.60;99.90;;;;;;5015520;28;20048;-81
2023/01/19 11:46:31;;;;;;;12.77;2.10;;;7.00;99.90;;;;;;5009846;28;20149;-75
2023/01/19 11:49:20;;;;;;;11.40;4.72;;;7.10;99.90;;;;;;5016408;28;20030;-77
2023/01/19 11:51:49;;;;;;;3.35;1.80;;;7.10;99.90;;;;;;5011220;28;20041;-74
2023/01/19 11:54:22;;;;;;;1.55;1.08;;;7.10;99.90;;;;;;5016174;28;20050;-74
2023/01/19 11:56:50;;;;;;;3.08;1.90;;;7.00;99.90;;;;;;5003788;28;20389;-73
2023/01/19 11:59:17;;;;;;;9.18;4.63;;;6.70;99.90;;;;;;5016233;28;20426;-74
2023/01/19 12:02:01;;;;;;;4.35;2.45;;;6.40;99.90;;;;;;5016251;28;20363;-74
2023/01/19 12:04:35;;;;;;;3.05;1.85;;;6.50;99.90;;;;;;5014463;28;20257;-74
2023/01/19 12:07:06;;;;;;;15.77;5.60;;;6.90;99.90;;;;;;5032640;28;20025;-74
2023/01/19 12:09:53;;;;;;;7.57;4.10;;;7.00;99.90;;;;;;5035893;28;20038;-74
2023/01/19 12:12:35;;;;;;;29.85;5.45;;;7.60;99.90;;;;;;5036096;28;20437;-74
2023/01/19 12:15:01;;;;;;;;;;;8.00;99.90;;;;;;5035828;28;20099;-73
2023/01/19 12:17:32;;;;;;;0.35;0.35;;;7.00;99.90;;;;;;5035930;28;19913;-74
2023/01/19 12:20:31;;;;;;;1.45;1.35;;;6.70;99.90;;;;;;5035753;28;20032;-74
2023/01/19 12:23:12;;;;;;;4.35;2.95;;;6.70;99.90;;;;;;5028019;28;20488;-74
2023/01/19 12:26:04;;;;;;;5.60;3.58;;;6.60;99.90;;;;;;5032043;28;20037;-74
2023/01/19 12:28:39;;;;;;;3.97;2.42;;;5.50;99.90;;;;;;5023108;28;20041;-73
2023/01/19 12:31:07;;;;;;;9.45;5.80;;;5.60;99.90;;;;;;5034490;28;20053;-74
2023/01/19 12:33:39;;;;;;;2.75;2.05;;;6.20;99.90;;;;;;5035552;28;20061;-74
2023/01/19 12:36:08;;;;;;;6.95;4.45;;;6.70;99.90;;;;;;5035264;28;20466;-74
2023/01/19 12:38:43;;;;;;;7.47;4.07;;;6.70;99.90;;;;;;5035423;28;20036;-74
2023/01/19 12:41:25;;;;;;;16.35;4.93;;;7.10;99.90;;;;;;5035356;28;20033;-74
2023/01/19 12:44:10;;;;;;;2.72;1.55;;;7.30;99.90;;;;;;5025513;28;20395;-74
2023/01/19 12:46:48;;;;;;;13.25;4.43;;;8.10;99.90;;;;;;5011652;28;20025;-74
2023/01/19 12:49:36;;;;;;;11.90;4.63;;;7.50;99.90;;;;;;5034683;28;20422;-74
2023/01/19 12:52:25;;;;;;;11.13;3.40;;;7.60;99.90;;;;;;5034014;28;20036;-75
2023/01/19 12:55:29;;;;;;;8.73;5.22;;;6.80;99.90;;;;;;5035642;28;20490;-74
2023/01/19 12:58:00;;;;;;;6.32;3.03;;;6.30;99.90;;;;;;5037138;28;20049;-75
2023/01/19 13:00:38;;;;;;;9.10;5.20;;;6.40;99.90;;;;;;5038756;28;20034;-75
2023/01/19 13:03:24;;;;;;;4.72;2.33;;;6.70;99.90;;;;;;5038487;28;20080;-76
2023/01/19 13:05:55;;;;;;;5.32;2.45;;;6.20;99.90;;;;;;5037101;28;20048;-74
2023/01/19 13:08:28;;;;;;;21.27;9.40;;;6.20;99.90;;;;;;5034659;28;20113;-74
2023/01/19 13:11:05;;;;;;;20.85;10.02;;;5.50;99.90;;;;;;5035932;28;20029;-73
2023/01/19 13:13:36;;;;;;;7.10;3.10;;;5.70;99.90;;;;;;5035896;28;20033;-73
2023/01/19 13:16:23;;;;;;;15.75;7.30;;;6.30;99.90;;;;;;5035455;28;20025;-74
2023/01/19 13:19:01;;;;;;;3.17;2.58;;;6.30;99.90;;;;;;5014224;28;20087;-74